Time;durP1;ratioP1;P1;durP2;ratioP2;P2;SDS_P1;SDS_P2;PMS_P1;PMS_P2;Temp;Humidity;BMP_temperature;BMP_pressure;BME280_temperature;BME280_humidity;BME280_pressure;Samples;Min_cycle;Max_cycle;Signal;HPM_P1;HPM_P2
2024/01/20 00:00:21;;;;;;;18.87;12.10;;;;;;;;;;685130;28;849;-64
2024/01/20 00:00:42;;;;;;;19.40;11.93;;;;;;;;;;683745;28;4287;-58
2024/01/20 00:01:03;;;;;;;20.90;11.85;;;;;;;;;;684100;28;1187;-63
2024/01/20 00:01:23;;;;;;;18.98;11.95;;;;;;;;;;685373;28;881;-61
2024/01/20 00:01:44;;;;;;;18.52;11.27;;;;;;;;;;684500;28;1035;-62
2024/01/20 00:02:07;;;;;;;22.23;11.70;;;;;;;;;;684430;28;1495;-60
2024/01/20 00:02:28;;;;;;;20.85;12.27;;;;;;;;;;685032;28;1188;-59
2024/01/20 00:02:48;;;;;;;20.17;11.57;;;;;;;;;;684415;28;1084;-62
2024/01/20 00:03:09;;;;;;;19.85;11.57;;;;;;;;;;685393;28;806;-62
2024/01/20 00:03:30;;;;;;;19.43;12.13;;;;;;;;;;684385;28;4544;-62
2024/01/20 00:03:51;;;;;;;20.95;11.73;;;;;;;;;;684348;28;1187;-61
2024/01/20 00:04:12;;;;;;;19.23;11.80;;;;;;;;;;683140;28;1133;-63
2024/01/20 00:04:32;;;;;;;17.57;11.33;;;;;;;;;;685090;28;1261;-62
2024/01/20 00:04:53;;;;;;;19.30;12.17;;;;;;;;;;683760;28;1299;-63
2024/01/20 00:05:14;;;;;;;19.42;11.82;;;;;;;;;;682647;28;823;-63
2024/01/20 00:05:35;;;;;;;19.25;11.60;;;;;;;;;;685014;28;976;-62
2024/01/20 00:05:55;;;;;;;21.00;11.80;;;;;;;;;;684195;28;1314;-63
2024/01/20 00:06:16;;;;;;;19.92;11.75;;;;;;;;;;685507;28;798;-63
2024/01/20 00:06:37;;;;;;;19.20;11.82;;;;;;;;;;685019;28;4349;-59
2024/01/20 00:06:58;;;;;;;20.10;11.63;;;;;;;;;;684500;28;1022;-63
2024/01/20 00:07:20;;;;;;;20.63;11.75;;;;;;;;;;685141;28;1109;-61
2024/01/20 00:07:41;;;;;;;18.52;11.57;;;;;;;;;;685432;28;1110;-61
2024/01/20 00:08:02;;;;;;;17.90;11.20;;;;;;;;;;684090;28;1197;-62
2024/01/20 00:08:23;;;;;;;19.55;11.63;;;;;;;;;;685362;28;917;-62
2024/01/20 00:08:44;;;;;;;17.88;11.07;;;;;;;;;;684470;28;951;-59
2024/01/20 00:09:05;;;;;;;19.70;11.52;;;;;;;;;;684744;28;1271;-62
2024/01/20 00:09:26;;;;;;;18.60;11.20;;;;;;;;;;684349;28;4454;-62
2024/01/20 00:09:47;;;;;;;18.55;11.20;;;;;;;;;;687118;28;1093;-60
2024/01/20 00:10:11;;;;;;;20.10;11.93;;;;;;;;;;687690;28;1910;-63
2024/01/20 00:10:34;;;;;;;19.40;11.50;;;;;;;;;;688173;28;1093;-62
2024/01/20 00:10:55;;;;;;;18.17;11.35;;;;;;;;;;692233;28;1041;-60
2024/01/20 00:11:15;;;;;;;18.47;11.50;;;;;;;;;;691768;28;1125;-59
2024/01/20 00:11:37;;;;;;;17.67;11.02;;;;;;;;;;693348;28;1345;-61
2024/01/20 00:11:58;;;;;;;19.15;11.18;;;;;;;;;;688395;28;1059;-61
2024/01/20 00:12:30;;;;;;;20.23;11.10;;;;;;;;;;690651;28;1513;-62
2024/01/20 00:12:51;;;;;;;17.98;11.27;;;;;;;;;;684835;28;4744;-63
2024/01/20 00:13:13;;;;;;;19.65;11.32;;;;;;;;;;685786;28;1267;-61
2024/01/20 00:13:34;;;;;;;19.23;11.97;;;;;;;;;;688197;28;912;-62
2024/01/20 00:13:57;;;;;;;20.08;11.43;;;;;;;;;;689078;28;1014;-61
2024/01/20 00:14:17;;;;;;;18.48;11.32;;;;;;;;;;688114;28;1356;-61
2024/01/20 00:14:38;;;;;;;19.77;11.43;;;;;;;;;;686182;28;889;-61
2024/01/20 00:15:01;;;;;;;19.07;11.47;;;;;;;;;;684350;28;1154;-62
2024/01/20 00:15:30;;;;;;;22.50;11.63;;;;;;;;;;686712;28;4417;-59
2024/01/20 00:15:50;;;;;;;21.27;11.80;;;;;;;;;;684257;28;1000;-61
2024/01/20 00:16:10;;;;;;;19.00;11.33;;;;;;;;;;686632;28;845;-60
2024/01/20 00:16:30;;;;;;;19.08;11.52;;;;;;;;;;689361;28;1219;-63
2024/01/20 00:16:51;;;;;;;19.13;11.40;;;;;;;;;;688193;28;964;-62
2024/01/20 00:17:11;;;;;;;18.70;10.80;;;;;;;;;;688994;28;807;-59
2024/01/20 00:17:31;;;;;;;18.38;11.23;;;;;;;;;;687724;28;936;-60
2024/01/20 00:17:51;;;;;;;19.90;11.33;;;;;;;;;;686978;28;1055;-60
2024/01/20 00:18:11;;;;;;;18.53;11.30;;;;;;;;;;687919;28;1143;-58
2024/01/20 00:18:32;;;;;;;17.17;11.00;;;;;;;;;;686772;28;4618;-59
2024/01/20 00:18:52;;;;;;;18.23;11.10;;;;;;;;;;686637;28;1019;-61
2024/01/20 00:19:12;;;;;;;19.47;11.20;;;;;;;;;;688271;28;865;-59
2024/01/20 00:19:33;;;;;;;18.23;11.37;;;;;;;;;;686924;28;3701;-61
2024/01/20 00:19:53;;;;;;;20.77;11.77;;;;;;;;;;686579;28;1713;-59
2024/01/20 00:20:13;;;;;;;20.27;11.20;;;;;;;;;;687383;28;1325;-60
2024/01/20 00:20:33;;;;;;;20.10;11.65;;;;;;;;;;687708;28;936;-61
2024/01/20 00:20:54;;;;;;;18.40;11.13;;;;;;;;;;686748;28;1711;-59
2024/01/20 00:21:14;;;;;;;18.20;11.23;;;;;;;;;;687735;28;1199;-61
2024/01/20 00:21:34;;;;;;;18.42;11.20;;;;;;;;;;686639;28;4383;-55
2024/01/20 00:21:54;;;;;;;19.93;11.03;;;;;;;;;;686527;28;1240;-61
2024/01/20 00:22:15;;;;;;;18.37;11.40;;;;;;;;;;688000;28;921;-61
2024/01/20 00:22:35;;;;;;;21.02;11.35;;;;;;;;;;687808;28;833;-59
2024/01/20 00:22:55;;;;;;;19.40;10.90;;;;;;;;;;685744;28;1082;-56
2024/01/20 00:23:16;;;;;;;18.30;10.93;;;;;;;;;;687813;28;908;-61
2024/01/20 00:23:37;;;;;;;21.55;12.73;;;;;;;;;;687506;28;1460;-61
2024/01/20 00:23:57;;;;;;;19.08;11.32;;;;;;;;;;686399;28;1638;-59
2024/01/20 00:24:17;;;;;;;18.40;10.65;;;;;;;;;;687692;28;856;-60
2024/01/20 00:24:38;;;;;;;17.13;11.20;;;;;;;;;;686988;28;5399;-62
2024/01/20 00:25:00;;;;;;;17.70;11.43;;;;;;;;;;686790;28;1126;-61
2024/01/20 00:25:21;;;;;;;18.00;11.57;;;;;;;;;;686639;28;1300;-60
2024/01/20 00:25:41;;;;;;;18.30;11.60;;;;;;;;;;687344;28;759;-61
2024/01/20 00:26:01;;;;;;;17.23;11.02;;;;;;;;;;686533;28;2042;-59
2024/01/20 00:26:21;;;;;;;19.53;10.90;;;;;;;;;;687746;28;1235;-61
2024/01/20 00:26:42;;;;;;;19.97;11.43;;;;;;;;;;687398;28;869;-61
2024/01/20 00:27:02;;;;;;;20.17;11.65;;;;;;;;;;685545;28;1795;-60
2024/01/20 00:27:22;;;;;;;19.27;11.23;;;;;;;;;;687689;28;877;-62
2024/01/20 00:27:42;;;;;;;18.77;11.40;;;;;;;;;;683382;28;4364;-61
2024/01/20 00:28:03;;;;;;;18.60;11.02;;;;;;;;;;683354;28;1695;-61
2024/01/20 00:28:24;;;;;;;18.55;11.02;;;;;;;;;;684505;28;893;-57
2024/01/20 00:28:45;;;;;;;19.00;11.13;;;;;;;;;;683908;28;1084;-60
2024/01/20 00:29:06;;;;;;;20.67;11.00;;;;;;;;;;681713;29;1298;-62
2024/01/20 00:29:26;;;;;;;18.50;11.13;;;;;;;;;;682673;29;1334;-62
2024/01/20 00:29:47;;;;;;;18.10;11.35;;;;;;;;;;681092;28;2069;-59
2024/01/20 00:30:10;;;;;;;18.92;11.65;;;;;;;;;;682364;28;1916;-61
2024/01/20 00:30:30;;;;;;;19.73;12.60;;;;;;;;;;684619;28;4329;-62
2024/01/20 00:30:50;;;;;;;19.43;11.37;;;;;;;;;;684112;28;1032;-57
2024/01/20 00:31:11;;;;;;;17.73;11.10;;;;;;;;;;684441;28;1417;-62
2024/01/20 00:31:34;;;;;;;18.75;10.57;;;;;;;;;;685410;28;912;-61
2024/01/20 00:31:55;;;;;;;20.90;11.33;;;;;;;;;;682515;28;1781;-57
2024/01/20 00:32:15;;;;;;;18.63;11.45;;;;;;;;;;684193;28;790;-61
2024/01/20 00:32:39;;;;;;;19.25;11.40;;;;;;;;;;681756;29;1304;-63
2024/01/20 00:32:59;;;;;;;18.80;11.40;;;;;;;;;;681071;28;3857;-63
2024/01/20 00:33:20;;;;;;;17.17;10.82;;;;;;;;;;682654;29;873;-63
2024/01/20 00:33:41;;;;;;;16.83;10.60;;;;;;;;;;683572;28;4313;-61
2024/01/20 00:34:02;;;;;;;18.88;10.55;;;;;;;;;;685782;28;1155;-60
2024/01/20 00:34:22;;;;;;;19.00;11.10;;;;;;;;;;686720;28;1325;-62
2024/01/20 00:34:43;;;;;;;19.65;11.15;;;;;;;;;;684872;28;921;-65
2024/01/20 00:35:03;;;;;;;19.97;11.03;;;;;;;;;;684387;28;1819;-60
2024/01/20 00:35:24;;;;;;;17.25;11.00;;;;;;;;;;684666;28;968;-62
2024/01/20 00:35:45;;;;;;;18.73;11.20;;;;;;;;;;689993;28;1639;-63
2024/01/20 00:36:05;;;;;;;20.45;11.43;;;;;;;;;;689416;28;889;-57
2024/01/20 00:36:26;;;;;;;18.10;10.53;;;;;;;;;;686792;28;4459;-61
2024/01/20 00:36:46;;;;;;;17.98;10.75;;;;;;;;;;688523;28;1512;-62
2024/01/20 00:37:09;;;;;;;17.57;11.17;;;;;;;;;;690093;28;907;-58
2024/01/20 00:37:29;;;;;;;19.13;11.52;;;;;;;;;;689182;28;1217;-63
2024/01/20 00:37:50;;;;;;;20.85;11.65;;;;;;;;;;683662;28;1883;-63
2024/01/20 00:38:11;;;;;;;18.05;10.88;;;;;;;;;;684721;28;1283;-61
2024/01/20 00:38:33;;;;;;;17.60;10.77;;;;;;;;;;687043;28;845;-62
2024/01/20 00:38:53;;;;;;;19.33;10.95;;;;;;;;;;683554;28;1776;-61
2024/01/20 00:39:16;;;;;;;19.25;10.95;;;;;;;;;;681704;29;841;-59
2024/01/20 00:39:37;;;;;;;18.53;11.50;;;;;;;;;;682378;28;4424;-63
2024/01/20 00:39:57;;;;;;;18.23;11.40;;;;;;;;;;683918;28;2220;-63
2024/01/20 00:40:18;;;;;;;17.83;10.87;;;;;;;;;;683994;28;1327;-60
2024/01/20 00:40:38;;;;;;;18.98;11.00;;;;;;;;;;684540;28;1080;-62
2024/01/20 00:40:59;;;;;;;18.48;11.20;;;;;;;;;;683960;28;881;-61
2024/01/20 00:41:19;;;;;;;19.20;11.03;;;;;;;;;;687612;28;802;-59
2024/01/20 00:41:40;;;;;;;19.70;11.10;;;;;;;;;;684587;28;1319;-62
2024/01/20 00:42:01;;;;;;;18.75;11.15;;;;;;;;;;685030;28;1742;-63
2024/01/20 00:42:22;;;;;;;18.08;11.15;;;;;;;;;;685792;28;1820;-62
2024/01/20 00:42:42;;;;;;;19.02;11.10;;;;;;;;;;681373;28;4426;-62
2024/01/20 00:43:03;;;;;;;18.43;11.37;;;;;;;;;;680830;28;1789;-62
2024/01/20 00:43:23;;;;;;;16.60;11.05;;;;;;;;;;683235;28;857;-63
2024/01/20 00:43:44;;;;;;;18.20;11.10;;;;;;;;;;686357;28;773;-59
2024/01/20 00:44:04;;;;;;;19.00;11.15;;;;;;;;;;683966;28;2046;-63
2024/01/20 00:44:25;;;;;;;16.83;10.33;;;;;;;;;;687423;28;1269;-62
2024/01/20 00:44:45;;;;;;;18.20;10.83;;;;;;;;;;683657;28;1174;-59
2024/01/20 00:45:07;;;;;;;17.38;10.80;;;;;;;;;;684826;28;1018;-62
2024/01/20 00:45:31;;;;;;;18.17;10.90;;;;;;;;;;684007;28;4754;-62
2024/01/20 00:45:51;;;;;;;17.83;11.10;;;;;;;;;;683554;28;1368;-62
2024/01/20 00:46:12;;;;;;;17.95;10.90;;;;;;;;;;684855;28;932;-62
2024/01/20 00:46:34;;;;;;;19.87;10.67;;;;;;;;;;684728;28;881;-62
2024/01/20 00:46:55;;;;;;;16.83;10.85;;;;;;;;;;686125;28;1289;-63
2024/01/20 00:47:16;;;;;;;17.33;10.75;;;;;;;;;;689564;28;1175;-60
2024/01/20 00:47:38;;;;;;;17.92;10.60;;;;;;;;;;687373;28;916;-63
2024/01/20 00:47:59;;;;;;;16.17;10.77;;;;;;;;;;686318;28;1069;-60
2024/01/20 00:48:19;;;;;;;17.40;11.18;;;;;;;;;;687401;28;865;-63
2024/01/20 00:48:40;;;;;;;18.90;10.47;;;;;;;;;;685319;28;4382;-62
2024/01/20 00:49:00;;;;;;;20.10;10.77;;;;;;;;;;682928;28;1018;-62
2024/01/20 00:49:21;;;;;;;17.88;10.85;;;;;;;;;;685264;28;759;-62
2024/01/20 00:49:41;;;;;;;17.57;10.90;;;;;;;;;;687494;28;924;-63
2024/01/20 00:50:04;;;;;;;20.02;10.82;;;;;;;;;;683540;28;2013;-58
2024/01/20 00:50:25;;;;;;;17.50;10.65;;;;;;;;;;684798;28;1091;-62
2024/01/20 00:50:45;;;;;;;19.07;10.77;;;;;;;;;;683673;28;1113;-58
2024/01/20 00:51:06;;;;;;;18.35;11.00;;;;;;;;;;683874;28;837;-62
2024/01/20 00:51:26;;;;;;;19.45;11.45;;;;;;;;;;683681;28;4499;-61
2024/01/20 00:51:47;;;;;;;18.83;11.37;;;;;;;;;;683943;28;887;-62
2024/01/20 00:52:08;;;;;;;18.27;11.40;;;;;;;;;;684707;28;1160;-62
2024/01/20 00:52:28;;;;;;;16.50;10.48;;;;;;;;;;684750;28;1237;-62
2024/01/20 00:52:49;;;;;;;18.03;10.67;;;;;;;;;;684114;28;921;-60
2024/01/20 00:53:09;;;;;;;18.40;10.45;;;;;;;;;;684816;28;845;-62
2024/01/20 00:53:29;;;;;;;18.77;10.97;;;;;;;;;;684687;28;1296;-62
2024/01/20 00:53:50;;;;;;;18.08;10.90;;;;;;;;;;683839;28;1239;-63
2024/01/20 00:54:10;;;;;;;17.00;10.77;;;;;;;;;;684493;28;1278;-62
2024/01/20 00:54:31;;;;;;;17.10;10.80;;;;;;;;;;683990;28;4334;-62
2024/01/20 00:54:52;;;;;;;18.15;10.98;;;;;;;;;;683516;28;1244;-63
2024/01/20 00:55:15;;;;;;;18.23;10.67;;;;;;;;;;681731;29;880;-60
2024/01/20 00:55:36;;;;;;;16.75;10.77;;;;;;;;;;681785;29;1326;-62
2024/01/20 00:55:59;;;;;;;18.83;10.73;;;;;;;;;;681913;28;866;-61
2024/01/20 00:56:20;;;;;;;19.58;10.88;;;;;;;;;;684542;28;953;-61
2024/01/20 00:56:40;;;;;;;16.02;10.35;;;;;;;;;;685184;28;909;-61
2024/01/20 00:57:03;;;;;;;17.40;10.67;;;;;;;;;;683800;28;1067;-60
2024/01/20 00:57:24;;;;;;;18.48;10.45;;;;;;;;;;689879;28;861;-61
2024/01/20 00:57:44;;;;;;;19.67;10.73;;;;;;;;;;691755;28;4181;-58
2024/01/20 00:58:05;;;;;;;18.33;11.30;;;;;;;;;;688818;28;1303;-60
2024/01/20 00:58:25;;;;;;;18.83;11.13;;;;;;;;;;686598;28;1656;-59
2024/01/20 00:58:45;;;;;;;18.63;11.30;;;;;;;;;;687597;28;801;-61
2024/01/20 00:59:06;;;;;;;19.33;11.50;;;;;;;;;;685588;28;1017;-63
2024/01/20 00:59:27;;;;;;;17.95;10.90;;;;;;;;;;684704;28;1240;-63
2024/01/20 00:59:47;;;;;;;18.00;10.53;;;;;;;;;;685732;28;1028;-62
2024/01/20 01:00:09;;;;;;;17.10;10.63;;;;;;;;;;685510;28;786;-62
2024/01/20 01:00:29;;;;;;;17.27;10.75;;;;;;;;;;686868;28;4755;-62
2024/01/20 01:00:50;;;;;;;19.53;11.07;;;;;;;;;;689098;28;1097;-63
2024/01/20 01:01:10;;;;;;;19.40;11.13;;;;;;;;;;690325;28;862;-59
2024/01/20 01:01:31;;;;;;;20.03;11.03;;;;;;;;;;689710;28;786;-62
2024/01/20 01:01:52;;;;;;;18.38;11.18;;;;;;;;;;686133;28;1136;-60
2024/01/20 01:02:15;;;;;;;18.92;10.77;;;;;;;;;;687367;28;841;-62
2024/01/20 01:02:36;;;;;;;20.50;10.95;;;;;;;;;;686705;28;971;-59
2024/01/20 01:02:56;;;;;;;18.30;11.00;;;;;;;;;;686644;28;1120;-61
2024/01/20 01:03:17;;;;;;;18.35;10.70;;;;;;;;;;687113;28;1212;-63
2024/01/20 01:03:37;;;;;;;17.27;10.60;;;;;;;;;;684984;28;4393;-64
2024/01/20 01:03:58;;;;;;;18.00;11.48;;;;;;;;;;686536;28;1058;-58
2024/01/20 01:04:18;;;;;;;17.77;11.03;;;;;;;;;;684453;28;1356;-61
2024/01/20 01:04:39;;;;;;;17.85;10.93;;;;;;;;;;684522;28;1042;-62
2024/01/20 01:05:05;;;;;;;18.30;11.23;;;;;;;;;;683984;28;1042;-62
2024/01/20 01:05:28;;;;;;;17.70;11.10;;;;;;;;;;687413;28;810;-63
2024/01/20 01:05:49;;;;;;;19.45;11.15;;;;;;;;;;686115;28;964;-61
2024/01/20 01:06:09;;;;;;;18.33;11.00;;;;;;;;;;687604;28;1242;-62
2024/01/20 01:06:30;;;;;;;17.73;10.57;;;;;;;;;;687131;28;4288;-62
2024/01/20 01:06:50;;;;;;;17.17;10.47;;;;;;;;;;686264;28;1139;-62
2024/01/20 01:07:11;;;;;;;17.13;10.15;;;;;;;;;;687758;28;848;-62
2024/01/20 01:07:32;;;;;;;17.33;10.40;;;;;;;;;;687559;28;1042;-61
2024/01/20 01:07:52;;;;;;;17.20;10.68;;;;;;;;;;685871;28;1076;-58
2024/01/20 01:08:13;;;;;;;17.83;10.80;;;;;;;;;;687849;28;1278;-60
2024/01/20 01:08:34;;;;;;;16.37;10.60;;;;;;;;;;687628;28;766;-61
2024/01/20 01:08:58;;;;;;;17.85;10.32;;;;;;;;;;686243;28;883;-62
2024/01/20 01:09:18;;;;;;;17.08;10.40;;;;;;;;;;687880;28;972;-62
2024/01/20 01:09:39;;;;;;;17.27;10.23;;;;;;;;;;686799;28;4755;-62
2024/01/20 01:09:59;;;;;;;16.90;10.13;;;;;;;;;;686195;28;1894;-59
2024/01/20 01:10:20;;;;;;;18.27;10.45;;;;;;;;;;687122;28;778;-59
2024/01/20 01:10:41;;;;;;;18.80;10.77;;;;;;;;;;687477;28;857;-59
2024/01/20 01:11:02;;;;;;;19.15;11.43;;;;;;;;;;686108;28;980;-62
2024/01/20 01:11:23;;;;;;;19.67;11.60;;;;;;;;;;685719;28;840;-60
2024/01/20 01:11:45;;;;;;;18.38;10.93;;;;;;;;;;687042;28;1017;-62
2024/01/20 01:12:05;;;;;;;19.38;10.75;;;;;;;;;;686659;28;1537;-62
2024/01/20 01:12:27;;;;;;;16.92;11.10;;;;;;;;;;689347;28;4318;-62
2024/01/20 01:12:50;;;;;;;17.45;10.73;;;;;;;;;;689082;28;973;-58
2024/01/20 01:13:11;;;;;;;18.55;10.60;;;;;;;;;;689026;28;1155;-63
2024/01/20 01:13:35;;;;;;;18.37;10.67;;;;;;;;;;689903;28;1232;-61
2024/01/20 01:13:56;;;;;;;17.33;10.63;;;;;;;;;;686941;28;891;-62
2024/01/20 01:14:16;;;;;;;18.48;10.50;;;;;;;;;;689771;28;1480;-62
2024/01/20 01:14:37;;;;;;;18.37;10.80;;;;;;;;;;690082;28;797;-61
2024/01/20 01:15:01;;;;;;;18.33;10.70;;;;;;;;;;688894;28;1189;-61
2024/01/20 01:15:21;;;;;;;18.23;10.57;;;;;;;;;;689571;28;889;-61
2024/01/20 01:15:42;;;;;;;18.23;10.57;;;;;;;;;;688822;28;4355;-63
2024/01/20 01:16:07;;;;;;;19.55;10.68;;;;;;;;;;686268;28;1002;-60
2024/01/20 01:16:36;;;;;;;18.23;10.30;;;;;;;;;;687393;28;975;-61
2024/01/20 01:16:57;;;;;;;17.77;10.30;;;;;;;;;;683872;28;1728;-60
2024/01/20 01:17:17;;;;;;;17.63;10.80;;;;;;;;;;684278;28;1156;-61
2024/01/20 01:17:38;;;;;;;17.93;10.40;;;;;;;;;;684987;28;1378;-60
2024/01/20 01:17:58;;;;;;;18.75;10.80;;;;;;;;;;684072;28;1498;-63
2024/01/20 01:18:19;;;;;;;19.03;11.10;;;;;;;;;;686766;28;1354;-60
2024/01/20 01:18:39;;;;;;;19.20;10.82;;;;;;;;;;686815;28;4367;-62
2024/01/20 01:19:02;;;;;;;18.40;10.80;;;;;;;;;;682824;28;1230;-62
2024/01/20 01:19:23;;;;;;;17.35;10.55;;;;;;;;;;684261;28;912;-61
2024/01/20 01:19:43;;;;;;;16.42;9.88;;;;;;;;;;684672;28;865;-62
2024/01/20 01:20:04;;;;;;;20.57;10.77;;;;;;;;;;682403;28;1807;-61
2024/01/20 01:20:24;;;;;;;19.65;10.90;;;;;;;;;;683984;28;827;-61
2024/01/20 01:20:45;;;;;;;17.33;10.32;;;;;;;;;;684856;28;786;-62
2024/01/20 01:21:06;;;;;;;17.98;10.68;;;;;;;;;;683522;28;1459;-62
2024/01/20 01:21:26;;;;;;;17.43;10.60;;;;;;;;;;683332;28;4541;-63
2024/01/20 01:21:47;;;;;;;18.15;10.55;;;;;;;;;;687615;28;1176;-60
2024/01/20 01:22:07;;;;;;;18.33;10.57;;;;;;;;;;686183;28;1797;-61
2024/01/20 01:22:28;;;;;;;18.13;10.47;;;;;;;;;;685587;28;845;-62
2024/01/20 01:22:50;;;;;;;17.85;11.23;;;;;;;;;;686488;28;1726;-61
2024/01/20 01:23:11;;;;;;;18.15;10.85;;;;;;;;;;687462;28;983;-62
2024/01/20 01:23:31;;;;;;;17.73;11.02;;;;;;;;;;684155;28;1371;-60
2024/01/20 01:23:52;;;;;;;19.03;10.90;;;;;;;;;;681141;28;1392;-61
2024/01/20 01:24:12;;;;;;;20.35;11.15;;;;;;;;;;681563;28;803;-62
2024/01/20 01:24:33;;;;;;;20.55;11.02;;;;;;;;;;677432;29;4441;-61
2024/01/20 01:24:54;;;;;;;17.15;10.20;;;;;;;;;;676037;29;1418;-60
2024/01/20 01:25:15;;;;;;;18.70;10.63;;;;;;;;;;677159;29;1254;-63
2024/01/20 01:25:38;;;;;;;17.92;10.63;;;;;;;;;;678987;29;1423;-62
2024/01/20 01:25:59;;;;;;;17.30;10.63;;;;;;;;;;680756;29;2335;-62
2024/01/20 01:26:19;;;;;;;17.83;10.90;;;;;;;;;;682656;28;1164;-63
2024/01/20 01:26:40;;;;;;;16.93;11.03;;;;;;;;;;684472;28;814;-63
2024/01/20 01:27:04;;;;;;;16.40;10.52;;;;;;;;;;683707;28;2251;-61
2024/01/20 01:27:25;;;;;;;16.38;10.30;;;;;;;;;;683092;28;4259;-60
2024/01/20 01:27:45;;;;;;;17.38;10.52;;;;;;;;;;686815;28;795;-63
2024/01/20 01:28:05;;;;;;;16.87;10.73;;;;;;;;;;686723;28;1521;-62
2024/01/20 01:28:26;;;;;;;17.13;10.27;;;;;;;;;;685631;28;1361;-62
2024/01/20 01:28:49;;;;;;;17.60;10.90;;;;;;;;;;678949;28;1967;-63
2024/01/20 01:29:10;;;;;;;17.42;11.40;;;;;;;;;;682812;28;3860;-63
2024/01/20 01:29:31;;;;;;;17.60;10.25;;;;;;;;;;682660;28;861;-63
2024/01/20 01:29:51;;;;;;;18.00;10.60;;;;;;;;;;681139;28;1797;-61
2024/01/20 01:30:12;;;;;;;17.67;10.65;;;;;;;;;;680488;28;1981;-63
2024/01/20 01:30:32;;;;;;;18.13;10.73;;;;;;;;;;686918;28;4526;-63
2024/01/20 01:30:53;;;;;;;18.47;10.53;;;;;;;;;;686037;28;1851;-60
2024/01/20 01:31:14;;;;;;;18.10;10.40;;;;;;;;;;687511;28;909;-61
2024/01/20 01:31:34;;;;;;;17.90;10.80;;;;;;;;;;687470;28;961;-61
2024/01/20 01:31:54;;;;;;;17.60;10.02;;;;;;;;;;686166;28;945;-62
2024/01/20 01:32:15;;;;;;;17.33;10.35;;;;;;;;;;684575;28;1343;-60
2024/01/20 01:32:36;;;;;;;16.83;10.07;;;;;;;;;;684860;28;1400;-62
2024/01/20 01:32:56;;;;;;;17.63;10.73;;;;;;;;;;686176;28;2397;-63
2024/01/20 01:33:17;;;;;;;17.13;10.30;;;;;;;;;;687269;28;1370;-60
2024/01/20 01:33:40;;;;;;;16.93;10.50;;;;;;;;;;686857;28;4424;-61
2024/01/20 01:34:01;;;;;;;17.10;10.52;;;;;;;;;;686087;28;924;-61
2024/01/20 01:34:21;;;;;;;19.37;10.40;;;;;;;;;;686831;28;881;-59
2024/01/20 01:34:42;;;;;;;18.60;10.68;;;;;;;;;;684745;28;940;-56
2024/01/20 01:35:03;;;;;;;16.25;10.50;;;;;;;;;;683793;28;938;-63
2024/01/20 01:35:23;;;;;;;17.30;10.20;;;;;;;;;;684907;28;741;-62
2024/01/20 01:35:44;;;;;;;17.97;10.13;;;;;;;;;;685056;28;830;-63
2024/01/20 01:36:05;;;;;;;18.60;11.02;;;;;;;;;;683646;28;1478;-61
2024/01/20 01:36:25;;;;;;;17.85;10.57;;;;;;;;;;684218;28;4411;-59
2024/01/20 01:36:46;;;;;;;17.53;10.60;;;;;;;;;;687291;28;916;-61
2024/01/20 01:37:06;;;;;;;19.42;10.85;;;;;;;;;;686110;28;1910;-59
2024/01/20 01:37:27;;;;;;;18.77;10.77;;;;;;;;;;687368;28;801;-60
2024/01/20 01:37:47;;;;;;;17.50;10.40;;;;;;;;;;690038;28;825;-62
2024/01/20 01:38:09;;;;;;;15.98;9.70;;;;;;;;;;685921;28;1774;-60
2024/01/20 01:38:29;;;;;;;17.15;9.80;;;;;;;;;;687555;28;849;-62
2024/01/20 01:38:50;;;;;;;17.95;10.30;;;;;;;;;;683322;28;1242;-63
2024/01/20 01:39:10;;;;;;;17.47;10.40;;;;;;;;;;684658;28;846;-60
2024/01/20 01:39:33;;;;;;;17.60;10.38;;;;;;;;;;686212;28;4369;-62
2024/01/20 01:39:54;;;;;;;16.60;10.00;;;;;;;;;;684183;28;1676;-62
2024/01/20 01:40:15;;;;;;;16.67;10.05;;;;;;;;;;686688;28;1395;-59
2024/01/20 01:40:35;;;;;;;17.30;10.00;;;;;;;;;;687395;28;793;-61
2024/01/20 01:40:56;;;;;;;17.10;10.40;;;;;;;;;;686390;28;1819;-63
2024/01/20 01:41:16;;;;;;;17.13;10.48;;;;;;;;;;687142;28;885;-61
2024/01/20 01:41:37;;;;;;;16.87;10.47;;;;;;;;;;687651;28;866;-63
2024/01/20 01:41:57;;;;;;;17.50;10.20;;;;;;;;;;686584;28;1430;-62
2024/01/20 01:42:18;;;;;;;16.85;10.45;;;;;;;;;;687334;28;1411;-60
2024/01/20 01:42:41;;;;;;;16.03;10.27;;;;;;;;;;686763;28;4254;-65
2024/01/20 01:43:02;;;;;;;16.58;9.98;;;;;;;;;;686154;28;1760;-62
2024/01/20 01:43:22;;;;;;;16.60;10.17;;;;;;;;;;686253;28;1053;-61
2024/01/20 01:43:43;;;;;;;20.65;10.88;;;;;;;;;;685764;28;936;-62
2024/01/20 01:44:03;;;;;;;20.73;10.75;;;;;;;;;;685077;28;1766;-62
2024/01/20 01:44:24;;;;;;;19.17;10.20;;;;;;;;;;688101;28;873;-62
2024/01/20 01:44:44;;;;;;;17.83;9.55;;;;;;;;;;687221;28;858;-63
2024/01/20 01:45:05;;;;;;;16.70;9.73;;;;;;;;;;684101;28;1761;-62
2024/01/20 01:45:25;;;;;;;17.63;10.10;;;;;;;;;;686591;28;4428;-60
2024/01/20 01:45:46;;;;;;;16.90;10.23;;;;;;;;;;686453;28;885;-60
2024/01/20 01:46:07;;;;;;;16.60;10.27;;;;;;;;;;686307;28;1787;-62
2024/01/20 01:46:31;;;;;;;18.17;10.80;;;;;;;;;;687348;28;781;-63
2024/01/20 01:46:54;;;;;;;17.50;10.57;;;;;;;;;;685825;28;1896;-60
2024/01/20 01:47:14;;;;;;;16.13;10.40;;;;;;;;;;686816;28;955;-61
2024/01/20 01:47:35;;;;;;;17.23;10.75;;;;;;;;;;684465;28;807;-61
2024/01/20 01:47:56;;;;;;;16.73;10.67;;;;;;;;;;684626;28;1774;-63
2024/01/20 01:48:16;;;;;;;17.23;10.05;;;;;;;;;;687342;28;790;-63
2024/01/20 01:48:36;;;;;;;17.90;10.13;;;;;;;;;;688841;28;4388;-57
2024/01/20 01:48:57;;;;;;;16.80;10.17;;;;;;;;;;688686;28;1036;-61
2024/01/20 01:49:18;;;;;;;16.38;10.13;;;;;;;;;;690064;28;861;-59
2024/01/20 01:49:38;;;;;;;16.33;9.93;;;;;;;;;;693186;28;912;-62
2024/01/20 01:49:59;;;;;;;16.27;10.50;;;;;;;;;;691447;28;1912;-62
2024/01/20 01:50:20;;;;;;;19.20;11.03;;;;;;;;;;689133;28;1536;-61
2024/01/20 01:50:40;;;;;;;18.58;10.77;;;;;;;;;;687468;28;861;-62
2024/01/20 01:51:03;;;;;;;16.80;10.13;;;;;;;;;;686161;28;1447;-66
2024/01/20 01:51:23;;;;;;;16.95;9.80;;;;;;;;;;687205;28;822;-62
2024/01/20 01:51:43;;;;;;;16.75;9.98;;;;;;;;;;687082;28;4443;-60
2024/01/20 01:52:04;;;;;;;16.07;9.40;;;;;;;;;;685674;28;1777;-62
2024/01/20 01:52:25;;;;;;;16.95;10.30;;;;;;;;;;687478;28;1164;-62
2024/01/20 01:52:47;;;;;;;18.00;10.32;;;;;;;;;;687436;28;937;-58
2024/01/20 01:53:08;;;;;;;16.77;10.25;;;;;;;;;;685979;28;1599;-59
2024/01/20 01:53:28;;;;;;;17.50;10.15;;;;;;;;;;687102;28;1080;-63
2024/01/20 01:53:49;;;;;;;16.80;9.93;;;;;;;;;;687614;28;766;-62
2024/01/20 01:54:11;;;;;;;17.27;10.13;;;;;;;;;;687270;28;917;-60
2024/01/20 01:54:32;;;;;;;17.55;10.25;;;;;;;;;;686127;28;4477;-62
2024/01/20 01:54:53;;;;;;;16.98;10.18;;;;;;;;;;686407;28;884;-62
2024/01/20 01:55:14;;;;;;;17.90;10.02;;;;;;;;;;687375;28;817;-60
2024/01/20 01:55:34;;;;;;;18.50;10.27;;;;;;;;;;687252;28;861;-63
2024/01/20 01:55:55;;;;;;;16.50;10.35;;;;;;;;;;683294;28;2347;-62
2024/01/20 01:56:16;;;;;;;16.42;10.02;;;;;;;;;;684836;28;877;-55
2024/01/20 01:56:36;;;;;;;16.47;9.77;;;;;;;;;;687786;28;862;-63
2024/01/20 01:56:59;;;;;;;18.17;10.20;;;;;;;;;;686235;28;1061;-63
2024/01/20 01:57:20;;;;;;;18.23;10.27;;;;;;;;;;687034;28;880;-61
2024/01/20 01:57:41;;;;;;;16.60;10.00;;;;;;;;;;684459;28;4894;-63
2024/01/20 01:58:02;;;;;;;16.42;9.88;;;;;;;;;;686243;28;1846;-63
2024/01/20 01:58:24;;;;;;;16.83;9.85;;;;;;;;;;687490;28;1045;-61
2024/01/20 01:58:44;;;;;;;18.00;9.68;;;;;;;;;;687018;28;1071;-62
2024/01/20 01:59:05;;;;;;;16.20;9.65;;;;;;;;;;686550;28;1757;-63
2024/01/20 01:59:27;;;;;;;16.37;10.33;;;;;;;;;;686960;28;893;-62
2024/01/20 01:59:48;;;;;;;16.55;10.05;;;;;;;;;;686043;28;838;-62
2024/01/20 02:00:09;;;;;;;17.90;10.00;;;;;;;;;;683472;28;1264;-65
2024/01/20 02:00:31;;;;;;;17.98;9.85;;;;;;;;;;684654;28;4334;-63
2024/01/20 02:00:54;;;;;;;16.47;9.43;;;;;;;;;;686393;28;1121;-63
2024/01/20 02:01:15;;;;;;;15.40;9.43;;;;;;;;;;687257;28;944;-57
2024/01/20 02:01:35;;;;;;;16.57;10.10;;;;;;;;;;686855;28;814;-60
2024/01/20 02:01:56;;;;;;;17.95;9.68;;;;;;;;;;686547;28;1104;-60
2024/01/20 02:02:16;;;;;;;17.30;10.07;;;;;;;;;;687782;28;1285;-62
2024/01/20 02:02:37;;;;;;;16.00;9.97;;;;;;;;;;687348;28;881;-62
2024/01/20 02:02:57;;;;;;;15.77;9.55;;;;;;;;;;683666;28;1037;-62
2024/01/20 02:03:18;;;;;;;17.03;10.10;;;;;;;;;;687717;28;869;-59
2024/01/20 02:03:38;;;;;;;18.23;10.57;;;;;;;;;;683525;28;4335;-62
2024/01/20 02:03:59;;;;;;;18.88;10.23;;;;;;;;;;683493;28;1103;-60
2024/01/20 02:04:20;;;;;;;16.88;9.57;;;;;;;;;;684885;28;849;-64
2024/01/20 02:04:40;;;;;;;16.07;9.07;;;;;;;;;;684947;28;1026;-61
2024/01/20 02:05:01;;;;;;;16.58;9.98;;;;;;;;;;686621;28;849;-62
2024/01/20 02:05:22;;;;;;;17.77;10.02;;;;;;;;;;687433;28;793;-62
2024/01/20 02:05:42;;;;;;;17.17;9.80;;;;;;;;;;687046;28;1543;-61
2024/01/20 02:06:03;;;;;;;17.58;10.70;;;;;;;;;;686786;28;1077;-58
2024/01/20 02:06:23;;;;;;;15.90;9.90;;;;;;;;;;687477;28;1268;-62
2024/01/20 02:06:43;;;;;;;16.33;9.48;;;;;;;;;;683707;28;4710;-62